メインページ
METAR-TAF:

METAR-TAF

空港 :

Dease Lake, ブリティッシュコロンビア州, カナダ

緯度: 58-25-20N, 経度: 130-01-53W, 海抜: 803m

現時点の気象観測

当レポートは14分前の18:45(UTC)に作成
変向風 2kt
気温 -2°C
湿度 93%
気圧 1018 hPa
視程: 4.0km
高度2800ftの千切れ雲あり
高度3600ftの千切れ雲あり
高度10000ftの曇り
小雪

METAR: CYDL 231845Z AUTO VRB02KT 2 1/2SM -SN BKN028 BKN036 OVC100 M02/M03 A3006 RMK PRESFR SLP213

時間: 11:59 (18:59 UTC)

予報

当レポートは1時間21分前の17:38(UTC)に作成
予報は23日の 18時(UTC)から 24日の 02時(UTC)まで有効
変向風 3kt
視程: 10km
高度1500ftの雲は散在している
高度6000ftの曇り
小雪
23日の 18時(UTC)から 23日の 24時(UTC)まで一時的に
高度1000ftの曇り
小雪
確率 30%
23日の 18時(UTC)から 23日の 24時(UTC)まで
視程: 1.6km
高度800ftの
弱いにわか雪
24日の 0000時(UTC)から
南/南西の風 6kt
視程: 10km
高度2000ftの雲は散在している
高度4000ftの千切れ雲あり
24日の 00時(UTC)から 24日の 02時(UTC)まで一時的に
視程: 8.0km
高度2000ftの千切れ雲あり
高度4000ftの曇り
小雨, 雪, 靄

TAF: CYDL 231738Z 2318/2402 VRB03KT P6SM -SN SCT015 OVC060 TEMPO 2318/2324 21/2SM -SN OVC010 PROB30 2318/2324 1SM -SHSN VV008 FM240000 20006KT P6SM SCT020 BKN040 TEMPO 2400/2402 5SM -RASN BR BKN020 OVC040 RMK FCST BASED ON AUTO OBS. NXT FCST BY 240000Z

4,000以上の空港の気象観測と天気予報(METAR報とTAF報)

利用可能な観測所は地図上に黄色い丸と赤い丸で示す。

丸の上にカーソルを重ねると観測所名を参照できる。

次にクリックすると気象観測と天気予報を参照できる。

マップの切り替え:黒色「×」印の緑ボタンをクリックして拡大、「-」印の緑ボタンをクリックして縮小、緑色の三角印をクリックして隣りの地図に切り替え


METAR-TAF: